Time;durP1;ratioP1;P1;durP2;ratioP2;P2;SDS_P1;SDS_P2;PMS_P1;PMS_P2;Temp;Humidity;BMP_temperature;BMP_pressure;BME280_temperature;BME280_humidity;BME280_pressure;Samples;Min_cycle;Max_cycle;Signal;HPM_P1;HPM_P2
2023/12/01 00:01:47;;;;;;;31.60;8.27;;;17.50;99.90;;;;;;4973049;28;20030;-84
2023/12/01 00:04:13;;;;;;;26.83;7.07;;;17.40;99.90;;;;;;4972362;28;20026;-86
2023/12/01 00:06:39;;;;;;;31.27;8.20;;;17.50;99.90;;;;;;4972479;28;20512;-84
2023/12/01 00:09:07;;;;;;;30.70;8.00;;;17.50;99.90;;;;;;4973432;28;20046;-85
2023/12/01 00:11:33;;;;;;;31.17;7.95;;;17.50;99.90;;;;;;4972480;28;20030;-85
2023/12/01 00:13:59;;;;;;;34.85;7.70;;;17.40;99.90;;;;;;4989329;28;20043;-86
2023/12/01 00:16:26;;;;;;;37.63;7.70;;;17.50;99.90;;;;;;4973721;28;20051;-81
2023/12/01 00:18:53;;;;;;;23.50;7.20;;;17.50;99.90;;;;;;4972942;28;20399;-82
2023/12/01 00:21:19;;;;;;;23.98;7.25;;;17.40;99.90;;;;;;4971895;28;20062;-84
2023/12/01 00:23:46;;;;;;;23.52;7.05;;;17.50;99.90;;;;;;4972324;28;20030;-80
2023/12/01 00:26:12;;;;;;;28.00;7.88;;;17.50;99.90;;;;;;4993239;28;20395;-82
2023/12/01 00:28:39;;;;;;;28.42;7.32;;;17.50;99.90;;;;;;4995760;28;20044;-82
2023/12/01 00:31:05;;;;;;;24.70;6.90;;;17.50;99.90;;;;;;4992499;28;20102;-82
2023/12/01 00:33:32;;;;;;;27.08;7.70;;;17.50;99.90;;;;;;4970784;28;20038;-82
2023/12/01 00:36:00;;;;;;;30.48;9.82;;;17.50;99.90;;;;;;4988241;28;20027;-82
2023/12/01 00:38:27;;;;;;;39.78;7.97;;;17.40;99.90;;;;;;4958070;29;20693;-82
2023/12/01 00:40:53;;;;;;;33.00;8.32;;;17.50;99.90;;;;;;4988050;28;20031;-82
2023/12/01 00:43:20;;;;;;;30.48;8.52;;;17.40;99.90;;;;;;4973154;28;20054;-82
2023/12/01 00:45:46;;;;;;;34.42;8.43;;;17.40;99.90;;;;;;4976846;28;20053;-82
2023/12/01 00:48:13;;;;;;;34.55;8.23;;;17.50;99.90;;;;;;4976097;28;20083;-82
2023/12/01 00:50:39;;;;;;;33.67;7.63;;;17.50;99.90;;;;;;4975184;28;20031;-83
2023/12/01 00:53:06;;;;;;;34.83;7.50;;;17.40;99.90;;;;;;4990925;28;20077;-82
2023/12/01 00:55:32;;;;;;;30.60;7.70;;;17.50;99.90;;;;;;4976405;28;20063;-82
2023/12/01 00:57:59;;;;;;;27.40;7.22;;;17.50;99.90;;;;;;4978176;28;20052;-82
2023/12/01 01:00:25;;;;;;;27.20;7.40;;;17.50;99.90;;;;;;4974967;28;20042;-83
2023/12/01 01:02:52;;;;;;;25.77;7.90;;;17.50;99.90;;;;;;4991032;28;20066;-81
2023/12/01 01:05:18;;;;;;;26.88;7.20;;;17.50;99.90;;;;;;4991101;28;20023;-83
2023/12/01 01:07:45;;;;;;;34.70;7.82;;;17.50;99.90;;;;;;4974722;28;20030;-83
2023/12/01 01:10:11;;;;;;;31.30;7.38;;;17.50;99.90;;;;;;4991229;28;20030;-82
2023/12/01 01:12:38;;;;;;;31.30;7.70;;;17.60;99.90;;;;;;4974445;28;20440;-82
2023/12/01 01:15:04;;;;;;;27.73;8.02;;;17.60;99.90;;;;;;4975266;28;20054;-82
2023/12/01 01:17:31;;;;;;;32.13;8.85;;;17.60;99.90;;;;;;4975019;28;20034;-82
2023/12/01 01:19:59;;;;;;;35.15;8.18;;;17.60;99.90;;;;;;4991425;28;20045;-83
2023/12/01 01:22:25;;;;;;;29.90;7.38;;;17.50;99.90;;;;;;4975193;28;20031;-83
2023/12/01 01:24:53;;;;;;;41.28;8.85;;;17.50;99.90;;;;;;4975377;28;20038;-83
2023/12/01 01:27:19;;;;;;;31.77;7.50;;;17.50;99.90;;;;;;4974935;28;20465;-83
2023/12/01 01:29:46;;;;;;;27.35;7.78;;;17.50;99.90;;;;;;4988992;28;20037;-83
2023/12/01 01:32:12;;;;;;;34.70;8.10;;;17.50;99.90;;;;;;4958511;28;20082;-83
2023/12/01 01:34:39;;;;;;;26.58;7.03;;;17.50;99.90;;;;;;4976321;28;20366;-83
2023/12/01 01:37:07;;;;;;;34.97;8.07;;;17.50;99.90;;;;;;4990002;28;20102;-82
2023/12/01 01:39:37;;;;;;;22.17;7.45;;;17.50;99.90;;;;;;4974604;28;20476;-83
2023/12/01 01:42:04;;;;;;;27.33;7.50;;;17.50;99.90;;;;;;4973894;28;20038;-82
2023/12/01 01:44:30;;;;;;;28.58;7.10;;;17.50;99.90;;;;;;4974533;28;20058;-83
2023/12/01 01:46:58;;;;;;;30.17;7.22;;;17.50;99.90;;;;;;4974770;28;20126;-83
2023/12/01 01:49:27;;;;;;;28.38;7.32;;;17.40;99.90;;;;;;4974727;28;20042;-83
2023/12/01 01:51:56;;;;;;;37.85;8.95;;;17.50;99.90;;;;;;4973747;28;20027;-83
2023/12/01 01:54:25;;;;;;;32.05;7.47;;;17.40;99.90;;;;;;4973782;28;20101;-83
2023/12/01 01:56:53;;;;;;;48.53;6.78;;;17.40;99.90;;;;;;4974336;28;20031;-83
2023/12/01 01:59:21;;;;;;;37.50;7.60;;;17.40;99.90;;;;;;4974092;28;20031;-83
2023/12/01 02:01:48;;;;;;;23.83;7.57;;;17.40;99.90;;;;;;4974440;28;20030;-83
2023/12/01 02:04:16;;;;;;;27.88;7.00;;;17.40;99.90;;;;;;4974767;28;20110;-83
2023/12/01 02:06:45;;;;;;;37.05;8.43;;;17.40;99.90;;;;;;4974809;28;20101;-83
2023/12/01 02:09:13;;;;;;;29.67;7.30;;;17.40;99.90;;;;;;4974432;28;20073;-83
2023/12/01 02:11:43;;;;;;;30.45;7.40;;;17.40;99.90;;;;;;4974316;28;20031;-83
2023/12/01 02:14:10;;;;;;;33.90;6.82;;;17.50;99.90;;;;;;4974461;28;20241;-83
2023/12/01 02:16:45;;;;;;;37.83;6.95;;;17.50;99.90;;;;;;4973866;28;20035;-83
2023/12/01 02:19:13;;;;;;;26.05;6.53;;;17.50;99.90;;;;;;4974364;28;20488;-82
2023/12/01 02:21:46;;;;;;;36.55;7.78;;;17.50;99.90;;;;;;4980905;28;20033;-83
2023/12/01 02:24:14;;;;;;;29.00;8.13;;;17.50;99.90;;;;;;4975017;28;20030;-83
2023/12/01 02:26:40;;;;;;;28.45;7.47;;;17.50;99.90;;;;;;4989889;28;20042;-83
2023/12/01 02:29:07;;;;;;;38.70;8.07;;;17.50;99.90;;;;;;4973606;28;20174;-82
2023/12/01 02:31:34;;;;;;;29.08;7.40;;;17.50;99.90;;;;;;4973391;28;20050;-83
2023/12/01 02:34:00;;;;;;;29.35;7.43;;;17.40;99.90;;;;;;4962570;28;20067;-83
2023/12/01 02:36:27;;;;;;;28.67;8.20;;;17.40;99.90;;;;;;4986505;28;20495;-83
2023/12/01 02:38:56;;;;;;;29.02;7.57;;;17.40;99.90;;;;;;4960082;28;20027;-83
2023/12/01 02:41:23;;;;;;;28.20;6.63;;;17.40;99.90;;;;;;4973125;28;20392;-83
2023/12/01 02:43:49;;;;;;;33.53;8.15;;;17.40;99.90;;;;;;4973304;28;20121;-83
2023/12/01 02:46:22;;;;;;;37.38;6.90;;;17.50;99.90;;;;;;4988144;28;20440;-83
2023/12/01 02:48:50;;;;;;;34.08;8.85;;;17.40;99.90;;;;;;4989466;28;20042;-83
2023/12/01 02:51:16;;;;;;;29.40;7.20;;;17.40;99.90;;;;;;4988517;28;20019;-83
2023/12/01 02:53:42;;;;;;;33.50;7.32;;;17.40;99.90;;;;;;4989303;28;20420;-83
2023/12/01 02:56:09;;;;;;;33.53;7.07;;;17.40;99.90;;;;;;4973310;28;20054;-83
2023/12/01 02:58:35;;;;;;;28.33;7.63;;;17.40;99.90;;;;;;4972676;28;20027;-83
2023/12/01 03:01:03;;;;;;;37.00;7.65;;;17.40;99.90;;;;;;4989403;28;20022;-83
2023/12/01 03:03:30;;;;;;;33.30;7.55;;;17.40;99.90;;;;;;4973337;28;20030;-83
2023/12/01 03:05:56;;;;;;;32.83;7.68;;;17.50;99.90;;;;;;4972998;28;20057;-83
2023/12/01 03:08:22;;;;;;;36.80;7.30;;;17.50;99.90;;;;;;4972086;28;20038;-82
2023/12/01 03:10:48;;;;;;;26.55;7.47;;;17.40;99.90;;;;;;4971401;28;20442;-83
2023/12/01 03:13:15;;;;;;;43.63;7.93;;;17.50;99.90;;;;;;4971034;28;20400;-83
2023/12/01 03:15:41;;;;;;;35.38;7.50;;;17.50;99.90;;;;;;4973628;28;20044;-83
2023/12/01 03:18:08;;;;;;;32.17;7.03;;;17.40;99.90;;;;;;4972940;28;20517;-83
2023/12/01 03:20:34;;;;;;;39.42;7.18;;;17.40;99.90;;;;;;4974979;28;20026;-83
2023/12/01 03:23:01;;;;;;;29.45;7.30;;;17.40;99.90;;;;;;4972857;28;20034;-83
2023/12/01 03:25:27;;;;;;;28.27;7.75;;;17.50;99.90;;;;;;4970518;28;20043;-82
2023/12/01 03:27:54;;;;;;;43.80;7.80;;;17.50;99.90;;;;;;4953988;28;20027;-83
2023/12/01 03:30:21;;;;;;;37.55;7.35;;;17.40;99.90;;;;;;4988167;28;20109;-83
2023/12/01 03:32:48;;;;;;;23.58;6.63;;;17.40;99.90;;;;;;4972523;28;20027;-83
2023/12/01 03:35:20;;;;;;;30.70;7.80;;;17.40;99.90;;;;;;4989139;28;20026;-83
2023/12/01 03:37:47;;;;;;;37.47;8.35;;;17.40;99.90;;;;;;4972477;28;20027;-83
2023/12/01 03:40:14;;;;;;;33.80;8.73;;;17.40;99.90;;;;;;4972968;28;20058;-83
2023/12/01 03:42:48;;;;;;;25.23;9.07;;;17.50;99.90;;;;;;4972582;28;20038;-82
2023/12/01 03:45:15;;;;;;;37.70;8.35;;;17.40;99.90;;;;;;4977092;28;20484;-83
2023/12/01 03:47:46;;;;;;;37.72;8.57;;;17.50;99.90;;;;;;4995049;28;20511;-82
2023/12/01 03:50:13;;;;;;;34.25;8.10;;;17.40;99.90;;;;;;4974514;28;20043;-83
2023/12/01 03:52:41;;;;;;;38.10;9.32;;;17.40;99.90;;;;;;4972509;28;20113;-83
2023/12/01 03:55:10;;;;;;;30.88;7.93;;;17.40;99.90;;;;;;4987837;28;20035;-83
2023/12/01 03:57:37;;;;;;;31.02;8.05;;;17.40;99.90;;;;;;4977036;28;20035;-83
2023/12/01 04:00:13;;;;;;;56.65;8.25;;;17.40;99.90;;;;;;4978889;28;20026;-82
2023/12/01 04:02:42;;;;;;;37.33;6.95;;;17.40;99.90;;;;;;4961119;28;20027;-86
2023/12/01 04:05:17;;;;;;;42.33;7.85;;;17.40;99.90;;;;;;4976944;28;20026;-85
2023/12/01 04:07:45;;;;;;;28.60;7.60;;;17.30;99.90;;;;;;4993328;28;20094;-84
2023/12/01 04:10:13;;;;;;;34.95;7.82;;;17.30;99.90;;;;;;4992097;28;20551;-85
2023/12/01 04:12:47;;;;;;;43.92;7.68;;;17.40;99.90;;;;;;4982852;28;20064;-85
2023/12/01 04:15:19;;;;;;;38.13;7.22;;;17.40;99.90;;;;;;5010053;28;20042;-88
2023/12/01 04:17:48;;;;;;;43.92;8.23;;;17.40;99.90;;;;;;4976854;28;20078;-84
2023/12/01 04:20:27;;;;;;;25.85;6.85;;;17.40;99.90;;;;;;4975654;28;20125;-86
2023/12/01 04:22:59;;;;;;;37.63;8.27;;;17.30;99.90;;;;;;4977058;28;20510;-85
2023/12/01 04:25:26;;;;;;;44.35;8.95;;;17.40;99.90;;;;;;4976494;28;20033;-85
2023/12/01 04:27:53;;;;;;;28.80;8.15;;;17.30;99.90;;;;;;4976772;28;20019;-86
2023/12/01 04:30:20;;;;;;;45.15;9.02;;;17.30;99.90;;;;;;4976302;28;20431;-84
2023/12/01 04:32:53;;;;;;;36.90;8.18;;;17.30;99.90;;;;;;4968040;28;20384;-84
2023/12/01 04:35:20;;;;;;;43.58;8.57;;;17.30;99.90;;;;;;4975976;28;20026;-84
2023/12/01 04:37:47;;;;;;;44.08;7.45;;;17.30;99.90;;;;;;4976136;28;20484;-86
2023/12/01 04:40:17;;;;;;;34.58;7.25;;;17.30;99.90;;;;;;4975706;28;20031;-83
2023/12/01 04:42:48;;;;;;;38.50;7.47;;;17.20;99.90;;;;;;4974591;28;20042;-82
2023/12/01 04:45:24;;;;;;;32.83;7.65;;;17.30;99.90;;;;;;4976568;28;20528;-88
2023/12/01 04:47:52;;;;;;;30.60;7.35;;;17.30;99.90;;;;;;4977188;28;20405;-86
2023/12/01 04:50:23;;;;;;;33.15;7.45;;;17.30;99.90;;;;;;4975824;28;20038;-86
2023/12/01 04:52:53;;;;;;;45.08;8.13;;;17.30;99.90;;;;;;4989066;28;20074;-85
2023/12/01 04:55:27;;;;;;;41.03;8.55;;;17.30;99.90;;;;;;4973525;28;20066;-82
2023/12/01 04:57:56;;;;;;;;;;;17.30;99.90;;;;;;4965113;28;20031;-87
2023/12/01 05:00:28;;;;;;;36.47;7.30;;;17.30;99.90;;;;;;4975419;28;20001;-86
2023/12/01 05:02:58;;;;;;;45.97;8.77;;;17.30;99.90;;;;;;4964350;28;20027;-86
2023/12/01 05:05:27;;;;;;;43.00;7.80;;;17.30;99.90;;;;;;4972479;28;20027;-88
2023/12/01 05:07:59;;;;;;;34.60;7.68;;;17.30;99.90;;;;;;4973570;28;20034;-88
2023/12/01 05:10:30;;;;;;;40.22;8.35;;;17.30;99.90;;;;;;4986880;28;20557;-87
2023/12/01 05:13:00;;;;;;;34.70;7.97;;;17.30;99.90;;;;;;4975762;28;20058;-87
2023/12/01 05:15:28;;;;;;;41.13;9.20;;;17.30;99.90;;;;;;4976575;28;20023;-87
2023/12/01 05:18:07;;;;;;;44.72;7.70;;;17.30;99.90;;;;;;4976324;28;20122;-86
2023/12/01 05:20:34;;;;;;;33.83;7.35;;;17.30;99.90;;;;;;4975929;28;20607;-84
2023/12/01 05:23:08;;;;;;;28.50;7.30;;;17.30;99.90;;;;;;4976063;28;20062;-88
2023/12/01 05:25:34;;;;;;;32.65;7.55;;;17.30;99.90;;;;;;4976804;28;20138;-87
2023/12/01 05:28:03;;;;;;;48.63;8.05;;;17.30;99.90;;;;;;4975050;28;20081;-84
2023/12/01 05:30:33;;;;;;;41.28;8.25;;;17.30;99.90;;;;;;4976301;28;20043;-83
2023/12/01 05:32:59;;;;;;;36.28;8.40;;;17.20;99.90;;;;;;4959132;28;20022;-84
2023/12/01 05:35:26;;;;;;;37.88;7.35;;;17.20;99.90;;;;;;4975096;28;20033;-84
2023/12/01 05:37:55;;;;;;;41.88;8.90;;;17.20;99.90;;;;;;4975219;28;20460;-84
2023/12/01 05:40:25;;;;;;;33.50;7.57;;;17.30;99.90;;;;;;4975283;28;20039;-84
2023/12/01 05:42:53;;;;;;;39.92;7.18;;;17.20;99.90;;;;;;4991409;28;20027;-84
2023/12/01 05:45:27;;;;;;;38.55;8.43;;;17.20;99.90;;;;;;4975130;28;20089;-84
2023/12/01 05:47:55;;;;;;;42.03;8.23;;;17.10;99.90;;;;;;4974752;28;20161;-83
2023/12/01 05:50:26;;;;;;;42.28;8.07;;;17.10;99.90;;;;;;4975057;28;20499;-84
2023/12/01 05:52:56;;;;;;;38.45;8.05;;;17.20;99.90;;;;;;4974726;28;20038;-84
2023/12/01 05:55:25;;;;;;;30.42;7.95;;;17.20;99.90;;;;;;4974918;28;20449;-84
2023/12/01 05:58:01;;;;;;;37.75;7.90;;;17.10;99.90;;;;;;4974876;28;20053;-84
2023/12/01 06:00:29;;;;;;;50.60;8.30;;;17.20;99.90;;;;;;4974809;28;20035;-84
2023/12/01 06:02:59;;;;;;;34.42;7.45;;;17.10;99.90;;;;;;4974647;28;20034;-84
2023/12/01 06:05:26;;;;;;;44.75;7.43;;;17.20;99.90;;;;;;4974467;28;20400;-85
2023/12/01 06:07:56;;;;;;;45.00;8.00;;;17.10;99.90;;;;;;4990795;28;20046;-84
2023/12/01 06:10:24;;;;;;;37.47;8.02;;;17.10;99.90;;;;;;4974396;28;20034;-87
2023/12/01 06:12:51;;;;;;;35.95;7.65;;;17.20;99.90;;;;;;4959443;28;20049;-87
2023/12/01 06:15:18;;;;;;;39.47;8.57;;;17.20;99.90;;;;;;4959562;28;20477;-88
2023/12/01 06:17:47;;;;;;;42.05;8.52;;;17.20;99.90;;;;;;4959457;28;20042;-90
2023/12/01 06:20:18;;;;;;;38.25;8.90;;;17.20;99.90;;;;;;4966406;28;20165;-88
2023/12/01 06:22:54;;;;;;;33.97;7.38;;;17.30;99.90;;;;;;4955821;28;20122;-87
2023/12/01 06:25:31;;;;;;;38.85;7.57;;;17.20;99.90;;;;;;4972000;28;20039;-86
2023/12/01 06:28:02;;;;;;;40.08;8.07;;;17.20;99.90;;;;;;4971880;28;20031;-86
2023/12/01 06:30:34;;;;;;;47.92;7.97;;;17.30;99.90;;;;;;4976309;28;20050;-85
2023/12/01 06:33:02;;;;;;;26.27;6.80;;;17.30;99.90;;;;;;4974792;28;20093;-83
2023/12/01 06:35:29;;;;;;;32.22;7.05;;;17.40;99.90;;;;;;4974278;28;20105;-84
2023/12/01 06:37:56;;;;;;;46.55;7.97;;;17.40;99.90;;;;;;4974171;28;20034;-86
2023/12/01 06:40:23;;;;;;;31.65;7.65;;;17.50;99.90;;;;;;4958188;28;20026;-82
2023/12/01 06:42:56;;;;;;;34.90;6.80;;;17.50;99.90;;;;;;4991071;28;20101;-86
2023/12/01 06:45:28;;;;;;;29.55;7.00;;;17.60;99.90;;;;;;4975034;28;20034;-88
2023/12/01 06:47:58;;;;;;;31.17;7.90;;;17.70;99.90;;;;;;4974669;28;20054;-87
2023/12/01 06:50:26;;;;;;;38.78;7.60;;;17.80;99.90;;;;;;4975020;28;20511;-85
2023/12/01 06:52:54;;;;;;;35.22;7.65;;;17.80;99.90;;;;;;4974421;28;20035;-88
2023/12/01 06:55:20;;;;;;;37.05;9.95;;;17.90;99.90;;;;;;4975340;28;20407;-87
2023/12/01 06:57:49;;;;;;;36.70;8.23;;;17.90;99.90;;;;;;4958380;28;20030;-84
2023/12/01 07:00:29;;;;;;;34.58;8.30;;;17.90;99.90;;;;;;4973646;28;20027;-84
2023/12/01 07:03:14;;;;;;;33.00;8.07;;;18.00;99.90;;;;;;4973436;28;20480;-82
2023/12/01 07:05:45;;;;;;;;;;;18.00;99.90;;;;;;4958341;28;20101;-81
2023/12/01 07:08:13;;;;;;;32.92;8.20;;;18.00;99.90;;;;;;4989508;28;19918;-84
2023/12/01 07:10:39;;;;;;;34.53;7.80;;;18.00;99.90;;;;;;4974720;28;20023;-81
2023/12/01 07:13:06;;;;;;;34.28;8.90;;;18.10;99.90;;;;;;4957157;28;20054;-81
2023/12/01 07:15:32;;;;;;;38.75;8.32;;;18.10;99.90;;;;;;4989387;28;20031;-81
2023/12/01 07:17:59;;;;;;;40.25;9.73;;;18.10;99.90;;;;;;4974562;28;20027;-81
2023/12/01 07:20:25;;;;;;;38.30;8.35;;;18.10;99.90;;;;;;4986030;28;20476;-81
2023/12/01 07:22:53;;;;;;;39.63;8.95;;;18.10;99.90;;;;;;4955109;28;20086;-81
2023/12/01 07:25:38;;;;;;;34.42;8.40;;;18.10;99.90;;;;;;4955031;28;20019;-81
2023/12/01 07:28:08;;;;;;;31.67;8.60;;;18.20;99.90;;;;;;4980231;28;20023;-81
2023/12/01 07:30:36;;;;;;;37.55;8.82;;;18.40;99.90;;;;;;4972667;28;20069;-80
2023/12/01 07:33:06;;;;;;;28.80;9.63;;;18.50;99.90;;;;;;5006374;28;20026;-81
2023/12/01 07:35:33;;;;;;;31.23;8.75;;;18.50;99.90;;;;;;4981173;28;20077;-81
2023/12/01 07:38:17;;;;;;;23.73;8.68;;;18.50;99.90;;;;;;4993648;28;20053;-81
2023/12/01 07:41:15;;;;;;;31.55;9.38;;;18.40;99.90;;;;;;4986603;28;20041;-82
2023/12/01 07:43:58;;;;;;;32.08;8.48;;;18.40;99.90;;;;;;4972579;28;20053;-81
2023/12/01 07:46:27;;;;;;;30.55;7.97;;;18.50;99.90;;;;;;4980499;28;20487;-81
2023/12/01 07:48:54;;;;;;;26.80;8.90;;;18.50;99.90;;;;;;5008578;28;20492;-82
2023/12/01 07:51:21;;;;;;;30.27;9.35;;;18.60;99.90;;;;;;4983081;28;20110;-82
2023/12/01 07:53:48;;;;;;;30.10;9.15;;;18.50;99.90;;;;;;4972772;28;20110;-82
2023/12/01 07:56:21;;;;;;;33.53;8.90;;;18.50;99.90;;;;;;4954751;28;20027;-81
2023/12/01 07:58:50;;;;;;;31.98;9.05;;;18.50;99.90;;;;;;4985693;28;20031;-81
2023/12/01 08:01:17;;;;;;;39.53;10.20;;;18.50;99.90;;;;;;4964244;28;20037;-82
2023/12/01 08:03:45;;;;;;;27.63;9.00;;;18.50;99.90;;;;;;5001622;28;20121;-82
2023/12/01 08:06:18;;;;;;;39.50;9.55;;;18.60;99.90;;;;;;4992118;28;20399;-82
2023/12/01 08:08:45;;;;;;;37.25;9.52;;;18.50;99.90;;;;;;4993334;28;20042;-81
2023/12/01 08:11:12;;;;;;;28.67;8.60;;;18.50;99.90;;;;;;4984555;28;20081;-82
2023/12/01 08:13:41;;;;;;;40.38;9.25;;;18.60;99.90;;;;;;4973804;28;20102;-81
2023/12/01 08:16:08;;;;;;;27.67;8.90;;;18.60;99.90;;;;;;4973950;28;20484;-82
2023/12/01 08:18:34;;;;;;;26.17;9.15;;;18.70;99.90;;;;;;4988857;28;20388;-82
2023/12/01 08:21:02;;;;;;;31.40;8.57;;;18.70;99.90;;;;;;4988693;28;20062;-82
2023/12/01 08:23:29;;;;;;;26.65;9.00;;;18.70;99.90;;;;;;5006720;28;20041;-81
2023/12/01 08:25:58;;;;;;;36.33;11.13;;;18.60;99.90;;;;;;4991968;28;20030;-82
2023/12/01 08:28:25;;;;;;;39.47;9.80;;;18.60;99.90;;;;;;5008314;28;20113;-82
2023/12/01 08:30:53;;;;;;;31.02;10.18;;;18.60;99.90;;;;;;4987262;28;20027;-82
2023/12/01 08:33:19;;;;;;;35.03;10.25;;;18.60;99.90;;;;;;4988525;28;20019;-81
2023/12/01 08:35:46;;;;;;;32.42;9.43;;;18.70;99.90;;;;;;4973593;28;20027;-82
2023/12/01 08:38:12;;;;;;;36.72;9.25;;;18.70;99.90;;;;;;4973675;28;20054;-82
2023/12/01 08:40:39;;;;;;;29.95;11.10;;;18.60;99.90;;;;;;4973744;28;20027;-82
2023/12/01 08:43:06;;;;;;;35.03;10.27;;;18.70;99.90;;;;;;5002320;28;20018;-81
2023/12/01 08:45:33;;;;;;;30.33;9.77;;;18.60;99.90;;;;;;4985482;28;20224;-82
2023/12/01 08:48:00;;;;;;;41.90;9.77;;;18.70;99.90;;;;;;4987235;28;20125;-82
2023/12/01 08:50:26;;;;;;;38.05;9.20;;;18.70;99.90;;;;;;4980817;28;20055;-81
2023/12/01 08:52:53;;;;;;;35.28;9.80;;;18.80;99.90;;;;;;4988701;28;20027;-81
2023/12/01 08:55:20;;;;;;;30.48;9.52;;;18.90;99.90;;;;;;4996485;28;20026;-81
2023/12/01 08:57:46;;;;;;;31.08;10.38;;;19.00;99.90;;;;;;5011665;28;20444;-82
2023/12/01 09:00:18;;;;;;;31.77;11.00;;;19.10;99.90;;;;;;4996245;28;20026;-85
2023/12/01 09:02:45;;;;;;;37.80;11.75;;;19.10;99.90;;;;;;5003452;28;20038;-86
2023/12/01 09:05:12;;;;;;;37.75;13.10;;;19.20;99.90;;;;;;4996398;28;20479;-87
2023/12/01 09:07:38;;;;;;;34.45;12.27;;;19.30;99.90;;;;;;4996096;28;20034;-88
2023/12/01 09:10:06;;;;;;;36.35;11.63;;;19.30;99.90;;;;;;4990428;28;20050;-87
2023/12/01 09:12:35;;;;;;;39.80;11.82;;;19.30;99.90;;;;;;4976492;28;20043;-88
2023/12/01 09:15:02;;;;;;;36.85;12.88;;;19.20;99.90;;;;;;4992658;28;20026;-87
2023/12/01 09:17:29;;;;;;;27.35;12.07;;;19.20;99.90;;;;;;4976528;28;20046;-87
2023/12/01 09:19:55;;;;;;;34.50;12.30;;;19.20;99.90;;;;;;4976450;28;20179;-86
2023/12/01 09:22:22;;;;;;;34.85;10.70;;;19.10;99.90;;;;;;5010129;28;20030;-88
2023/12/01 09:24:49;;;;;;;36.08;11.43;;;19.10;99.90;;;;;;4995069;28;20487;-84
2023/12/01 09:27:17;;;;;;;23.05;11.80;;;19.00;99.90;;;;;;4994676;28;20022;-83
2023/12/01 09:29:44;;;;;;;38.60;12.52;;;19.00;99.90;;;;;;4994548;28;20487;-83
2023/12/01 09:32:11;;;;;;;33.85;11.45;;;19.10;99.90;;;;;;4994988;28;20136;-84
2023/12/01 09:34:38;;;;;;;32.17;11.32;;;19.00;99.90;;;;;;4974992;28;20504;-83
2023/12/01 09:37:06;;;;;;;29.98;10.95;;;19.10;99.90;;;;;;4975044;28;20035;-84
2023/12/01 09:39:33;;;;;;;26.88;10.63;;;19.10;99.90;;;;;;4975156;28;20039;-84
2023/12/01 09:42:06;;;;;;;30.85;10.85;;;19.10;99.90;;;;;;4991115;28;20031;-84
2023/12/01 09:44:37;;;;;;;33.33;11.55;;;19.20;99.90;;;;;;4991151;28;20034;-83
2023/12/01 09:47:17;;;;;;;29.92;10.45;;;19.20;99.90;;;;;;4974686;28;20500;-82
2023/12/01 09:49:54;;;;;;;36.72;12.23;;;19.20;99.90;;;;;;4994657;28;20573;-83
2023/12/01 09:52:23;;;;;;;42.50;12.75;;;19.20;99.90;;;;;;4990909;28;20366;-84
2023/12/01 09:55:06;;;;;;;32.42;12.35;;;19.10;99.90;;;;;;4990823;28;20073;-83
2023/12/01 09:57:58;;;;;;;28.33;10.95;;;19.20;99.90;;;;;;4976072;28;20096;-84
2023/12/01 10:00:26;;;;;;;32.97;11.35;;;19.20;99.90;;;;;;4974477;28;20077;-84
2023/12/01 10:02:53;;;;;;;33.35;11.52;;;19.20;99.90;;;;;;4990797;28;20481;-83
2023/12/01 10:05:22;;;;;;;38.50;10.80;;;19.20;99.90;;;;;;4974306;28;20062;-84
2023/12/01 10:07:54;;;;;;;32.80;12.75;;;19.30;99.90;;;;;;4990720;28;20042;-83
2023/12/01 10:10:35;;;;;;;37.25;12.23;;;19.30;99.90;;;;;;4986097;28;20548;-84
2023/12/01 10:13:04;;;;;;;32.05;11.65;;;19.30;99.90;;;;;;4971009;28;20519;-83
2023/12/01 10:15:33;;;;;;;44.88;12.35;;;19.30;99.90;;;;;;4987222;28;20252;-83
2023/12/01 10:18:28;;;;;;;37.47;12.05;;;19.20;99.90;;;;;;4987304;28;20493;-83
2023/12/01 10:21:02;;;;;;;37.13;11.02;;;19.30;99.90;;;;;;4997674;28;20109;-84
2023/12/01 10:23:33;;;;;;;33.17;10.88;;;19.20;99.90;;;;;;4990376;28;20453;-83
2023/12/01 10:26:04;;;;;;;33.13;12.07;;;19.20;99.90;;;;;;4990254;28;20066;-83
2023/12/01 10:28:40;;;;;;;36.20;11.85;;;19.20;99.90;;;;;;4974132;28;20058;-84
2023/12/01 10:31:09;;;;;;;31.38;10.90;;;19.20;99.90;;;;;;4981862;28;20030;-84
2023/12/01 10:33:36;;;;;;;30.25;11.48;;;19.10;99.90;;;;;;4974018;28;20119;-84
2023/12/01 10:36:23;;;;;;;29.13;10.77;;;19.20;99.90;;;;;;4979335;28;20117;-84
2023/12/01 10:39:37;;;;;;;29.05;10.55;;;19.20;99.90;;;;;;4994606;28;20110;-83
2023/12/01 10:53:29;;;;;;;39.67;11.70;;;19.10;99.90;;;;;;4954133;29;20535;-84
2023/12/01 10:56:03;;;;;;;34.58;11.07;;;19.00;99.90;;;;;;4953921;29;20042;-83
2023/12/01 10:58:38;;;;;;;42.67;12.25;;;19.00;99.90;;;;;;4977197;28;20094;-83
2023/12/01 11:01:07;;;;;;;47.08;16.13;;;19.00;99.90;;;;;;4990188;28;20106;-83
2023/12/01 11:03:37;;;;;;;52.42;11.10;;;19.00;99.90;;;;;;4990965;28;20038;-85
2023/12/01 11:06:14;;;;;;;30.33;8.73;;;19.00;99.90;;;;;;4988330;28;20029;-84
2023/12/01 11:09:11;;;;;;;39.88;9.77;;;19.00;99.90;;;;;;4988762;28;20045;-84
2023/12/01 11:11:44;;;;;;;37.17;9.23;;;19.00;99.90;;;;;;4986959;28;20027;-84
2023/12/01 11:14:21;;;;;;;32.65;9.18;;;19.00;99.90;;;;;;4962259;28;20097;-84
2023/12/01 11:16:51;;;;;;;37.60;10.95;;;19.00;99.90;;;;;;4988633;28;20121;-83
2023/12/01 11:19:19;;;;;;;43.78;10.45;;;19.10;99.90;;;;;;4989885;28;20033;-84
2023/12/01 11:21:55;;;;;;;36.83;10.48;;;19.00;99.90;;;;;;4990191;28;20031;-83
2023/12/01 11:24:26;;;;;;;38.70;9.43;;;19.00;99.90;;;;;;4995584;28;20494;-82
2023/12/01 11:26:54;;;;;;;43.03;9.90;;;19.00;99.90;;;;;;5009411;28;20035;-82
2023/12/01 11:29:33;;;;;;;31.67;8.70;;;19.00;99.90;;;;;;4993309;28;20381;-83
2023/12/01 11:32:03;;;;;;;32.95;9.68;;;19.00;99.90;;;;;;4993011;28;20573;-83
2023/12/01 11:34:30;;;;;;;32.70;8.60;;;19.00;99.90;;;;;;5008219;28;20022;-83
2023/12/01 11:37:00;;;;;;;38.47;9.10;;;19.10;99.90;;;;;;5009674;28;20531;-83
2023/12/01 11:39:31;;;;;;;40.33;9.25;;;19.10;99.90;;;;;;4992955;28;20113;-84
2023/12/01 11:42:04;;;;;;;43.72;8.27;;;19.10;99.90;;;;;;4990393;28;20137;-83
2023/12/01 11:44:40;;;;;;;53.53;10.25;;;19.00;99.90;;;;;;4980657;28;20065;-83
2023/12/01 11:47:13;;;;;;;41.42;9.93;;;19.00;99.90;;;;;;5004021;28;20031;-84
2023/12/01 11:49:43;;;;;;;38.58;8.35;;;19.00;99.90;;;;;;4990137;28;20066;-84
2023/12/01 11:52:14;;;;;;;41.47;9.05;;;19.00;99.90;;;;;;4973899;28;20463;-84
2023/12/01 11:54:43;;;;;;;51.72;9.98;;;18.90;99.90;;;;;;4989659;28;20472;-83
2023/12/01 11:57:17;;;;;;;52.45;9.77;;;18.90;99.90;;;;;;4973790;28;20022;-83
2023/12/01 11:59:45;;;;;;;35.05;8.50;;;19.00;99.90;;;;;;4989988;28;20154;-83
2023/12/01 12:02:14;;;;;;;45.88;9.45;;;18.90;99.90;;;;;;4988538;28;20047;-83
2023/12/01 12:04:42;;;;;;;41.67;9.85;;;18.90;99.90;;;;;;4990257;28;20532;-85
2023/12/01 12:07:09;;;;;;;32.10;9.50;;;18.90;99.90;;;;;;4992074;28;20023;-83
2023/12/01 12:09:36;;;;;;;37.03;9.25;;;18.90;99.90;;;;;;4987947;28;20043;-82
2023/12/01 12:12:05;;;;;;;46.17;9.60;;;18.90;99.90;;;;;;4973256;28;20034;-84
2023/12/01 12:14:35;;;;;;;49.92;10.85;;;18.90;99.90;;;;;;4973058;28;20075;-83
2023/12/01 12:17:03;;;;;;;52.65;10.05;;;18.90;99.90;;;;;;4993247;28;20042;-83
2023/12/01 12:19:42;;;;;;;43.45;9.45;;;18.90;99.90;;;;;;4994807;28;20169;-83
2023/12/01 12:22:09;;;;;;;33.10;8.25;;;18.90;99.90;;;;;;4992083;28;20031;-83
2023/12/01 12:24:35;;;;;;;51.70;9.98;;;19.00;99.90;;;;;;4961710;28;20401;-84
2023/12/01 12:27:02;;;;;;;42.85;9.40;;;19.00;99.90;;;;;;4978697;28;20031;-83
2023/12/01 12:29:28;;;;;;;41.38;8.48;;;19.00;99.90;;;;;;4997368;28;20045;-84
2023/12/01 12:31:56;;;;;;;58.15;10.25;;;19.00;99.90;;;;;;5014196;28;20053;-84
2023/12/01 12:34:23;;;;;;;35.25;8.75;;;18.90;99.90;;;;;;4996179;28;20023;-84
2023/12/01 12:36:52;;;;;;;33.65;8.50;;;19.00;99.90;;;;;;5013844;28;20049;-84
2023/12/01 12:39:27;;;;;;;39.10;9.50;;;19.00;99.90;;;;;;5012483;28;20080;-81
2023/12/01 12:41:59;;;;;;;35.05;9.20;;;19.00;99.90;;;;;;4996935;28;20519;-80
2023/12/01 12:44:31;;;;;;;36.30;9.18;;;19.00;99.90;;;;;;4983345;28;20045;-80
2023/12/01 12:47:11;;;;;;;58.65;10.90;;;19.10;99.90;;;;;;4973442;28;20086;-80
2023/12/01 12:54:12;;;;;;;43.38;10.82;;;19.10;99.90;;;;;;4976394;28;20045;-79
2023/12/01 12:56:48;;;;;;;37.63;9.80;;;19.10;99.90;;;;;;4971760;28;20043;-78
2023/12/01 12:59:14;;;;;;;37.88;9.98;;;19.20;99.90;;;;;;4957482;29;20027;-78
2023/12/01 13:01:42;;;;;;;51.67;10.57;;;19.20;99.90;;;;;;4980617;28;20578;-78
2023/12/01 13:04:08;;;;;;;41.08;8.57;;;19.20;99.90;;;;;;4976472;28;20101;-78